Airfield :
LOGIN :

Register | Disclaimer

   EN    FR    IT 

 










Legend :    VFR   Marginal VFR   IFR   Intensive IFR   Very Intensive IFR
Visi :
Ceiling :
>= 8 km
>= 3000ft
5 to 8 km
1000 to 3000 ft
1500m to 5 km
500 to 1000 ft
800 to 1500m
200 to 500 ft
< 800m
< 200 ft
Symbols :   Thunderstorms  Fog  Heavy snow  Heavy precipitations  Wind > 20 kt
SIGMETs :     Misc.  Thunderstorms  Icing  Turbulence  Mountain Waves  Volcanic Ashes







- Airport Elevation : 124 ft
- IATA code : RNS
- Download approach charts


LFRN - Rennes

CURRENT METAR :
  • 290700Z AUTO 17004KT 9999 ///TCU 15/12 Q0998 BECMG BKN020

EXPIRED METARs :
  • 290630Z AUTO 18004KT 150V210 9999 FEW034/// BKN056/// OVC066/// ///TCU 14/12 Q0998 BECMG BKN020
  • 290600Z AUTO 20003KT 9999 BKN034 OVC054 13/11 Q0998 NOSIG
  • 290530Z AUTO 20003KT 9999 FEW035 BKN045 OVC058 13/11 Q0998 NOSIG
  • 290500Z AUTO 20002KT 9999 FEW036 OVC058 12/11 Q0998 NOSIG
  • 290430Z AUTO 21003KT CAVOK 12/11 Q0998 NOSIG

TAF TAF LFRN
Valid from the 29 at 06:00 until the 30 at 06:00 UTC


290500Z 2906/3006 VRB03KT CAVOK
BECMG 2906/2909 BKN020
TEMPO 2909/2922 4000 SHRA SCT020CB SCT025TCU
PROB30
TEMPO 2912/2920 2000 TSRA BKN020CB
BECMG 2913/2915 22010KT
BECMG 2921/2924 32006KT
TEMPO 3002/3006 5000 RA BKN015
PROB30
TEMPO 3004/3006 5000 RA BKN007
ATIS : +33 2 99 67 72 50
No reported NOTAMs for that airfield.
1 SIGMET reported for the Brest FIR (LFRR) :
 
Severe turbulence
LFRR SIGMET 1 VALID 290530/290930 LFPW
LFRR BREST FIR/UIR SEV TURB FCST SE OF LINE N4445 W00145 - N4415 W00500 SFC/FL050 STNR INTSF=



MET'MAP, your aeronautical weather chart ! - Copyright ORBIFLY December 2007 - Disclaimer

ORBIFLY MET'MAP TEAM :

Programming & Development : Alexandra Zaïnal
Concept & Development : Baudouin d'Aumeries
Co-Development & Prog : Marc-Olivier Méhu
Technical & hardware support : Manuel Goepfert

Contact : metmap@orbifly.com




SOURCES & CREDITS :

   NOAA